Ainsworth, Iowa
Current Conditions -  °F | °C
As of 1:35 AM on Sunday 23 Nov 2014 (Local Time) from KAWG Reporting Station
Overcast Overcast  
Wind Chill: 12°   Ceiling: 1400
Heat Index: 12°   Visibility: 10mi
Dew Point: 12°   Wind: 15mph
Humidity: 100%   Direction: 190°S
Pressure: 29.69"   Gusts: NA
Location:  41.29°N, 91.55°W
Report Text: KAWG 230735Z AUTO 19013KT 10SM OVC014 12/12 A2969 RMK AO2
Loading
Personal Weather Stations






























Interactive Weather Map New forecast layout! Learn more

10-Day Weather Forecast

Advertisements
Track Severe Weather on mobile